createdAt,value
2022-11-08T00:01:52.136Z,10.10
2022-11-08T00:07:13.876Z,13.10
2022-11-08T00:12:35.513Z,12.20
2022-11-08T00:17:38.424Z,10.40
2022-11-08T00:22:41.118Z,13.30
2022-11-08T00:27:43.758Z,12.70
2022-11-08T00:32:46.517Z,12.60
2022-11-08T00:37:49.164Z,10.80
2022-11-08T00:42:51.827Z,11.00
2022-11-08T00:47:54.615Z,12.20
2022-11-08T00:52:57.242Z,12.10
2022-11-08T00:58:00.705Z,13.50
2022-11-08T01:03:21.889Z,12.30
2022-11-08T01:08:24.866Z,13.40
2022-11-08T01:13:27.768Z,12.70
2022-11-08T01:18:30.468Z,13.40
2022-11-08T01:23:33.987Z,12.70
2022-11-08T01:28:37.375Z,11.60
2022-11-08T01:33:40.295Z,12.80
2022-11-08T01:38:43.214Z,11.10
2022-11-08T01:43:48.674Z,12.40
2022-11-08T01:49:00.129Z,11.40
2022-11-08T01:54:06.830Z,12.80
2022-11-08T02:04:15.215Z,10.90
2022-11-08T02:09:18.963Z,13.70
2022-11-08T02:14:21.809Z,12.00
2022-11-08T02:19:40.338Z,11.30
2022-11-08T02:24:43.239Z,12.20
2022-11-08T02:29:46.019Z,11.30
2022-11-08T02:34:58.250Z,13.30
2022-11-08T02:40:00.938Z,10.60
2022-11-08T02:45:06.415Z,10.70
2022-11-08T02:50:09.810Z,12.20
2022-11-08T02:55:12.543Z,11.30
2022-11-08T03:00:16.378Z,10.60
2022-11-08T03:05:20.009Z,14.00
2022-11-08T03:10:24.297Z,12.90
2022-11-08T03:15:27.864Z,11.00
2022-11-08T03:20:33.160Z,13.20
2022-11-08T03:25:36.143Z,11.30
2022-11-08T03:30:39.014Z,12.30
2022-11-08T03:35:43.242Z,12.40
2022-11-08T03:40:46.875Z,12.60
2022-11-08T03:45:49.580Z,12.00
2022-11-08T03:50:52.342Z,8.90
2022-11-08T03:55:55.032Z,12.10
2022-11-08T04:00:58.367Z,13.30
2022-11-08T04:06:03.105Z,13.20
2022-11-08T04:11:24.230Z,12.40
2022-11-08T04:16:26.994Z,11.20
2022-11-08T04:21:29.859Z,13.80
2022-11-08T04:26:32.527Z,14.70
2022-11-08T04:31:36.255Z,13.40
2022-11-08T04:36:38.970Z,10.00
2022-11-08T04:41:41.894Z,13.80
2022-11-08T04:46:44.684Z,12.40
2022-11-08T04:51:47.401Z,12.30
2022-11-08T04:56:50.069Z,9.20
2022-11-08T05:01:52.884Z,12.10
2022-11-08T05:06:55.788Z,9.60
2022-11-08T05:11:58.475Z,12.00
2022-11-08T05:17:01.302Z,9.80
2022-11-08T05:22:29.971Z,11.80
2022-11-08T05:27:32.697Z,10.90
2022-11-08T05:32:35.380Z,12.00
2022-11-08T05:37:42.177Z,11.10
2022-11-08T05:42:44.884Z,10.30
2022-11-08T05:47:47.950Z,10.80
2022-11-08T05:52:54.260Z,13.00
2022-11-08T05:57:57.023Z,11.30
2022-11-08T06:03:02.445Z,12.00
2022-11-08T06:08:05.210Z,10.30
2022-11-08T06:13:07.904Z,10.20
2022-11-08T06:18:10.656Z,11.50
2022-11-08T06:23:13.352Z,11.60
2022-11-08T06:28:16.148Z,11.50
2022-11-08T06:33:20.709Z,11.00
2022-11-08T06:38:23.902Z,11.70
2022-11-08T06:43:27.127Z,12.10
2022-11-08T06:48:35.340Z,11.30
2022-11-08T06:53:38.876Z,9.50
2022-11-08T06:58:42.071Z,12.50
2022-11-08T07:03:45.705Z,11.50
2022-11-08T07:08:48.407Z,9.00
2022-11-08T07:13:51.170Z,10.30
2022-11-08T07:18:55.793Z,10.00
2022-11-08T07:23:58.673Z,8.60
2022-11-08T07:29:01.455Z,9.90
2022-11-08T07:34:04.159Z,9.70
2022-11-08T07:39:07.057Z,9.20
2022-11-08T07:44:09.941Z,9.00
2022-11-08T07:49:12.652Z,9.40
2022-11-08T07:54:15.442Z,10.80
2022-11-08T07:59:18.200Z,8.50
2022-11-08T08:04:20.945Z,10.00
2022-11-08T08:09:23.727Z,10.80
2022-11-08T08:14:26.834Z,9.10
2022-11-08T08:19:29.498Z,8.60
2022-11-08T08:24:32.348Z,9.40
2022-11-08T08:29:35.037Z,10.90
2022-11-08T08:34:37.850Z,10.30
2022-11-08T08:39:47.326Z,9.60
2022-11-08T08:44:50.112Z,10.10
2022-11-08T08:49:53.121Z,10.30
2022-11-08T08:54:56.122Z,9.40
2022-11-08T09:05:21.564Z,10.30
2022-11-08T09:10:24.720Z,10.70
2022-11-08T09:15:27.597Z,10.80
2022-11-08T09:20:30.281Z,10.50
2022-11-08T09:25:33.560Z,11.30
2022-11-08T09:30:36.685Z,10.40
2022-11-08T09:35:39.607Z,8.70
2022-11-08T09:41:06.331Z,9.60
2022-11-08T09:46:24.936Z,9.20
2022-11-08T09:51:29.979Z,10.20
2022-11-08T09:56:38.021Z,10.40
2022-11-08T10:01:42.686Z,9.40
2022-11-08T10:07:07.784Z,9.10
2022-11-08T10:12:25.282Z,9.40
2022-11-08T10:17:46.557Z,9.60
2022-11-08T10:23:17.884Z,9.90
2022-11-08T10:28:28.385Z,9.20
2022-11-08T10:33:41.055Z,9.00
2022-11-08T10:38:51.422Z,8.30
2022-11-08T10:44:05.361Z,8.20
2022-11-08T10:49:12.226Z,7.60
2022-11-08T10:54:51.047Z,8.10
2022-11-08T10:59:56.362Z,7.90
2022-11-08T11:05:23.694Z,5.70
2022-11-08T11:10:35.775Z,6.80
2022-11-08T11:15:40.263Z,6.60
2022-11-08T11:20:43.465Z,6.80
2022-11-08T11:25:51.869Z,6.10
2022-11-08T11:31:03.780Z,5.20
2022-11-08T11:36:13.782Z,6.80
2022-11-08T11:41:38.959Z,5.70
2022-11-08T11:46:55.861Z,5.60
2022-11-08T11:51:58.942Z,5.70
2022-11-08T11:57:03.893Z,5.00
2022-11-08T12:02:41.461Z,4.90
2022-11-08T12:07:58.670Z,5.30
2022-11-08T12:13:12.611Z,5.30
2022-11-08T12:18:36.605Z,5.30
2022-11-08T12:23:53.763Z,4.70
2022-11-08T12:29:08.435Z,5.00
2022-11-08T12:39:26.566Z,5.00
2022-11-08T12:44:53.857Z,4.20
2022-11-08T12:50:18.446Z,4.90
2022-11-08T12:55:35.335Z,4.30
2022-11-08T13:00:41.980Z,4.90
2022-11-08T13:05:59.248Z,4.70
2022-11-08T13:11:17.852Z,4.80
2022-11-08T13:16:26.563Z,5.10
2022-11-08T13:21:30.029Z,5.70
2022-11-08T13:26:34.412Z,5.00
2022-11-08T13:31:37.176Z,5.40
2022-11-08T13:37:05.739Z,6.40
2022-11-08T13:42:47.504Z,4.70
2022-11-08T13:47:53.504Z,4.40
2022-11-08T13:58:32.924Z,5.70
2022-11-08T14:03:35.629Z,5.20
2022-11-08T14:08:48.869Z,5.80
2022-11-08T14:14:00.988Z,5.20
2022-11-08T14:19:18.810Z,5.90
2022-11-08T14:24:26.725Z,6.40
2022-11-08T14:29:29.444Z,5.60
2022-11-08T14:34:37.298Z,6.60
2022-11-08T14:39:40.075Z,6.50
2022-11-08T14:44:44.031Z,6.60
2022-11-08T14:49:47.934Z,6.30
2022-11-08T14:55:04.234Z,6.50
2022-11-08T15:00:12.822Z,6.30
2022-11-08T15:05:42.299Z,7.00
2022-11-08T15:10:57.524Z,6.50
2022-11-08T15:16:05.192Z,7.40
2022-11-08T15:21:23.024Z,8.90
2022-11-08T15:26:27.563Z,8.70
2022-11-08T15:31:34.919Z,8.70
2022-11-08T15:36:37.735Z,8.50
2022-11-08T15:41:41.551Z,8.80
2022-11-08T15:46:44.460Z,9.10
2022-11-08T15:51:49.075Z,8.70
2022-11-08T15:56:54.213Z,8.30
2022-11-08T16:01:59.816Z,8.10
2022-11-08T16:07:02.652Z,9.60
2022-11-08T16:12:06.116Z,11.10
2022-11-08T16:17:14.022Z,11.30
2022-11-08T16:22:19.248Z,10.40
2022-11-08T16:27:22.229Z,12.70
2022-11-08T16:32:25.031Z,12.00
2022-11-08T16:37:27.737Z,13.00
2022-11-08T16:42:30.438Z,11.80
2022-11-08T16:47:33.737Z,10.30
2022-11-08T16:52:36.438Z,9.30
2022-11-08T16:57:39.154Z,7.80
2022-11-08T17:02:45.877Z,7.10
2022-11-08T17:12:54.304Z,8.30
2022-11-08T17:17:58.744Z,8.90
2022-11-08T17:23:02.753Z,7.70
2022-11-08T17:28:06.189Z,8.90
2022-11-08T17:33:08.888Z,9.40
2022-11-08T17:38:12.770Z,8.80
2022-11-08T17:43:16.334Z,8.70
2022-11-08T17:48:19.340Z,8.20
2022-11-08T17:53:22.501Z,8.00
2022-11-08T17:58:28.779Z,8.80
2022-11-08T18:03:32.207Z,10.30
2022-11-08T18:08:35.418Z,8.80
2022-11-08T18:13:38.667Z,8.80
2022-11-08T18:18:42.068Z,8.40
2022-11-08T18:23:47.042Z,8.70
2022-11-08T18:28:49.721Z,7.80
2022-11-08T18:33:52.643Z,7.10
2022-11-08T18:38:57.441Z,7.90
2022-11-08T18:44:01.161Z,7.50
2022-11-08T18:49:05.236Z,8.40
2022-11-08T18:54:07.949Z,7.40
2022-11-08T18:59:10.743Z,7.40
2022-11-08T19:04:13.468Z,9.10
2022-11-08T19:09:16.262Z,7.20
2022-11-08T19:14:19.768Z,6.70
2022-11-08T19:19:25.749Z,8.50
2022-11-08T19:24:28.539Z,8.90
2022-11-08T19:29:31.332Z,8.70
2022-11-08T19:34:34.142Z,8.70
2022-11-08T19:39:36.956Z,8.60
2022-11-08T19:44:39.665Z,8.10
2022-11-08T19:49:42.446Z,8.40
2022-11-08T19:54:45.862Z,8.20
2022-11-08T19:59:48.560Z,8.50
2022-11-08T20:04:51.304Z,9.60
2022-11-08T20:09:54.364Z,9.40
2022-11-08T20:14:58.190Z,8.20
2022-11-08T20:20:00.918Z,8.40
2022-11-08T20:25:03.719Z,8.80
2022-11-08T20:30:07.376Z,8.50
2022-11-08T20:35:10.074Z,8.20
2022-11-08T20:40:14.040Z,8.90
2022-11-08T20:45:16.944Z,7.70
2022-11-08T20:50:19.643Z,8.20
2022-11-08T20:55:25.219Z,8.30
2022-11-08T21:00:51.982Z,7.70
2022-11-08T21:05:57.075Z,7.30
2022-11-08T21:11:02.256Z,7.30
2022-11-08T21:16:28.085Z,6.70
2022-11-08T21:21:28.885Z,7.30
2022-11-08T21:26:36.351Z,7.30
2022-11-08T21:31:39.497Z,8.70
2022-11-08T21:36:42.298Z,7.40
2022-11-08T21:41:45.003Z,7.70
2022-11-08T21:46:47.780Z,9.50
2022-11-08T21:51:50.499Z,7.10
2022-11-08T21:56:53.188Z,7.40
2022-11-08T22:01:55.830Z,7.80
2022-11-08T22:06:58.690Z,7.90
2022-11-08T22:12:01.482Z,6.60
2022-11-08T22:17:04.407Z,7.70
2022-11-08T22:22:07.208Z,7.50
2022-11-08T22:27:09.904Z,7.40
2022-11-08T22:32:12.605Z,8.20
2022-11-08T22:37:15.409Z,7.80
2022-11-08T22:42:18.085Z,7.60
2022-11-08T22:47:20.721Z,7.20
2022-11-08T22:52:23.346Z,7.10
2022-11-08T22:57:25.997Z,7.60
2022-11-08T23:02:32.854Z,7.80
2022-11-08T23:07:35.772Z,8.30
2022-11-08T23:12:56.875Z,7.30
2022-11-08T23:17:59.629Z,8.20
2022-11-08T23:23:21.352Z,8.40
2022-11-08T23:28:43.004Z,8.50
2022-11-08T23:33:45.717Z,8.00
2022-11-08T23:38:48.586Z,9.20
2022-11-08T23:44:10.665Z,10.30
2022-11-08T23:49:13.477Z,9.40
2022-11-08T23:54:16.553Z,9.00
2022-11-08T23:59:19.297Z,8.80
